ETD6A8 OMAA-LSZH
Flight info
| Callsign | ETD6A8 |
|---|---|
| Flight time | 7h 25m |
| Altitude | 32000 |
| Route | ORNEL DCT ELUDA DCT UKRAG DCT ESROM M318 GOLGU M550 ODBUK DCT SITER M440 KIA T503 OVANO L768 FIRAS R655 LEBOR UR655 BALMA L620 VESAR UB545 EVKIT UL619 MUT B545 SEHIR DCT KFK DCT SULTA UW714 YAA UA16 IST L610 FENER A16 VADEN L610 UTEKA DCT BGD DCT LAKIK DCT DIPSA DCT ERKIR L608 KPT L856 NEGRA |
| Aircraft | A21N/M-SDE3FGHIRWY/LB1 |
Departure
| Time | 2026-04-30 10:14 |
|---|---|
| Airport | Zayed International Airport (OMAA) |
Arrival
| Time | 2026-04-30 17:39 |
|---|---|
| Airport | Zürich Airport (LSZH) |
| Time | Latitude | Longitude | Altitude | Speed | Heading |
|---|---|---|---|---|---|
| 2026-04-30 09:29 | 24.44666 | 54.64282 | 91 ft | 0 kts | 71° |
| 2026-04-30 09:58 | 24.44666 | 54.64281 | 92 ft | 1 kts | 71° |
| 2026-04-30 09:58 | 24.44662 | 54.64266 | 92 ft | 2 kts | 71° |
| 2026-04-30 09:58 | 24.44658 | 54.64256 | 92 ft | 2 kts | 71° |
| 2026-04-30 09:58 | 24.44654 | 54.64240 | 92 ft | 2 kts | 71° |
| 2026-04-30 09:59 | 24.44644 | 54.64208 | 92 ft | 2 kts | 81° |
| 2026-04-30 09:59 | 24.44652 | 54.64171 | 92 ft | 2 kts | 127° |
| 2026-04-30 10:00 | 24.44671 | 54.64154 | 92 ft | 1 kts | 157° |
| 2026-04-30 10:00 | 24.44676 | 54.64152 | 92 ft | 1 kts | 159° |
| 2026-04-30 10:03 | 24.44659 | 54.64159 | 92 ft | 4 kts | 159° |
| 2026-04-30 10:03 | 24.44623 | 54.64169 | 92 ft | 5 kts | 179° |
| 2026-04-30 10:03 | 24.44594 | 54.64164 | 91 ft | 6 kts | 198° |
| 2026-04-30 10:04 | 24.44537 | 54.64124 | 91 ft | 7 kts | 218° |
| 2026-04-30 10:04 | 24.44506 | 54.64097 | 91 ft | 8 kts | 218° |
| 2026-04-30 10:04 | 24.44438 | 54.64041 | 91 ft | 9 kts | 216° |
| 2026-04-30 10:04 | 24.44382 | 54.63994 | 92 ft | 10 kts | 216° |
| 2026-04-30 10:05 | 24.44335 | 54.63987 | 91 ft | 10 kts | 161° |
| 2026-04-30 10:05 | 24.44264 | 54.64072 | 91 ft | 11 kts | 128° |
| 2026-04-30 10:05 | 24.44211 | 54.64148 | 91 ft | 12 kts | 128° |
| 2026-04-30 10:05 | 24.44174 | 54.64200 | 91 ft | 13 kts | 128° |
| 2026-04-30 10:06 | 24.44116 | 54.64282 | 91 ft | 13 kts | 128° |
| 2026-04-30 10:06 | 24.44035 | 54.64399 | 91 ft | 14 kts | 128° |
| 2026-04-30 10:06 | 24.43971 | 54.64489 | 91 ft | 15 kts | 128° |
| 2026-04-30 10:06 | 24.43905 | 54.64584 | 91 ft | 15 kts | 128° |
| 2026-04-30 10:07 | 24.43860 | 54.64646 | 91 ft | 15 kts | 128° |
| 2026-04-30 10:07 | 24.43767 | 54.64777 | 91 ft | 16 kts | 128° |
| 2026-04-30 10:07 | 24.43696 | 54.64877 | 91 ft | 16 kts | 128° |
| 2026-04-30 10:07 | 24.43648 | 54.64945 | 91 ft | 16 kts | 128° |
| 2026-04-30 10:08 | 24.43575 | 54.65049 | 91 ft | 17 kts | 128° |
| 2026-04-30 10:08 | 24.43476 | 54.65188 | 91 ft | 17 kts | 128° |
| 2026-04-30 10:08 | 24.43401 | 54.65293 | 91 ft | 17 kts | 128° |
| 2026-04-30 10:08 | 24.43324 | 54.65401 | 91 ft | 17 kts | 128° |
| 2026-04-30 10:09 | 24.43274 | 54.65472 | 91 ft | 17 kts | 128° |
| 2026-04-30 10:09 | 24.43197 | 54.65580 | 91 ft | 18 kts | 128° |
| 2026-04-30 10:09 | 24.43119 | 54.65691 | 91 ft | 18 kts | 128° |
| 2026-04-30 10:09 | 24.43016 | 54.65837 | 91 ft | 18 kts | 128° |
| 2026-04-30 10:10 | 24.42938 | 54.65948 | 91 ft | 18 kts | 128° |
| 2026-04-30 10:10 | 24.42858 | 54.66059 | 91 ft | 18 kts | 128° |
| 2026-04-30 10:10 | 24.42781 | 54.66171 | 91 ft | 18 kts | 127° |
| 2026-04-30 10:10 | 24.42726 | 54.66245 | 92 ft | 18 kts | 130° |
| 2026-04-30 10:11 | 24.42619 | 54.66392 | 92 ft | 18 kts | 128° |
| 2026-04-30 10:11 | 24.42566 | 54.66466 | 91 ft | 18 kts | 128° |
| 2026-04-30 10:11 | 24.42487 | 54.66576 | 91 ft | 18 kts | 129° |
| 2026-04-30 10:11 | 24.42406 | 54.66689 | 91 ft | 18 kts | 127° |
| 2026-04-30 10:12 | 24.42309 | 54.66799 | 91 ft | 10 kts | 172° |
| 2026-04-30 10:12 | 24.42245 | 54.66768 | 91 ft | 10 kts | 219° |
| 2026-04-30 10:12 | 24.42206 | 54.66733 | 92 ft | 11 kts | 219° |
| 2026-04-30 10:12 | 24.42227 | 54.66636 | 92 ft | 5 kts | 309° |
| 2026-04-30 10:13 | 24.42227 | 54.66634 | 91 ft | 0 kts | 309° |
| 2026-04-30 10:13 | 24.42328 | 54.66495 | 92 ft | 55 kts | 308° |
| 2026-04-30 10:13 | 24.42551 | 54.66181 | 92 ft | 98 kts | 308° |
| 2026-04-30 10:13 | 24.43330 | 54.65082 | 92 ft | 170 kts | 309° |
| 2026-04-30 10:14 | 24.44116 | 54.63980 | 336 ft | 190 kts | 309° |
| 2026-04-30 10:14 | 24.44645 | 54.63223 | 809 ft | 187 kts | 309° |
| 2026-04-30 10:14 | 24.46483 | 54.60644 | 2175 ft | 189 kts | 309° |
| 2026-04-30 10:15 | 24.47041 | 54.59862 | 2352 ft | 198 kts | 309° |
| 2026-04-30 10:15 | 24.47915 | 54.58635 | 2615 ft | 211 kts | 309° |
| 2026-04-30 10:15 | 24.48844 | 54.57325 | 2835 ft | 228 kts | 308° |
| 2026-04-30 10:15 | 24.49854 | 54.55900 | 3265 ft | 236 kts | 308° |
| 2026-04-30 10:16 | 24.50855 | 54.54488 | 3927 ft | 233 kts | 308° |
| 2026-04-30 10:16 | 24.51850 | 54.53082 | 4457 ft | 236 kts | 308° |
| 2026-04-30 10:16 | 24.52873 | 54.51638 | 4968 ft | 239 kts | 308° |
| 2026-04-30 10:17 | 24.54942 | 54.48713 | 5977 ft | 244 kts | 308° |
| 2026-04-30 10:17 | 24.57049 | 54.45733 | 6963 ft | 249 kts | 307° |
| 2026-04-30 10:17 | 24.58476 | 54.43714 | 7619 ft | 252 kts | 307° |
| 2026-04-30 10:18 | 24.59226 | 54.42756 | 7924 ft | 254 kts | 318° |
| 2026-04-30 10:18 | 24.60799 | 54.41855 | 8335 ft | 261 kts | 350° |
| 2026-04-30 10:18 | 24.63181 | 54.42264 | 8902 ft | 267 kts | 28° |
| 2026-04-30 10:19 | 24.65481 | 54.44497 | 9600 ft | 272 kts | 66° |
| 2026-04-30 10:19 | 24.65828 | 54.47217 | 9967 ft | 280 kts | 100° |
| 2026-04-30 10:19 | 24.65487 | 54.49382 | 10205 ft | 292 kts | 102° |
| 2026-04-30 10:19 | 24.65104 | 54.51627 | 10438 ft | 304 kts | 102° |
| 2026-04-30 10:20 | 24.64848 | 54.53196 | 10595 ft | 313 kts | 101° |
| 2026-04-30 10:20 | 24.64098 | 54.58126 | 11053 ft | 338 kts | 101° |
| 2026-04-30 10:20 | 24.63714 | 54.60743 | 11276 ft | 351 kts | 100° |
| 2026-04-30 10:21 | 24.63081 | 54.64322 | 11560 ft | 366 kts | 105° |
| 2026-04-30 10:21 | 24.62470 | 54.67065 | 11768 ft | 377 kts | 105° |
| 2026-04-30 10:21 | 24.62035 | 54.68963 | 11902 ft | 385 kts | 105° |
| 2026-04-30 10:21 | 24.61370 | 54.71853 | 12101 ft | 396 kts | 105° |
| 2026-04-30 10:22 | 24.60557 | 54.74829 | 12302 ft | 405 kts | 114° |
| 2026-04-30 10:22 | 24.58654 | 54.78378 | 12825 ft | 406 kts | 131° |
| 2026-04-30 10:22 | 24.56731 | 54.80616 | 13306 ft | 405 kts | 139° |
| 2026-04-30 10:22 | 24.54680 | 54.82758 | 13748 ft | 407 kts | 139° |
| 2026-04-30 10:23 | 24.53300 | 54.84187 | 14030 ft | 409 kts | 139° |
| 2026-04-30 10:23 | 24.50528 | 54.87073 | 14604 ft | 413 kts | 139° |
| 2026-04-30 10:23 | 24.48438 | 54.89262 | 15032 ft | 415 kts | 139° |
| 2026-04-30 10:23 | 24.46346 | 54.91460 | 15450 ft | 418 kts | 139° |
| 2026-04-30 10:24 | 24.44946 | 54.92933 | 15735 ft | 419 kts | 139° |
| 2026-04-30 10:24 | 24.42817 | 54.95177 | 16160 ft | 422 kts | 140° |
| 2026-04-30 10:24 | 24.40010 | 54.98135 | 16703 ft | 425 kts | 140° |
| 2026-04-30 10:24 | 24.37840 | 55.00420 | 17111 ft | 427 kts | 140° |
| 2026-04-30 10:25 | 24.35683 | 55.02687 | 17504 ft | 430 kts | 140° |
| 2026-04-30 10:25 | 24.33505 | 55.04977 | 17905 ft | 432 kts | 140° |
| 2026-04-30 10:25 | 24.32056 | 55.06496 | 18163 ft | 433 kts | 141° |
| 2026-04-30 10:25 | 24.29840 | 55.08729 | 18540 ft | 435 kts | 142° |
| 2026-04-30 10:26 | 24.27588 | 55.10944 | 18902 ft | 437 kts | 142° |
| 2026-04-30 10:26 | 24.25315 | 55.13171 | 19262 ft | 440 kts | 142° |
| 2026-04-30 10:26 | 24.23009 | 55.15432 | 19623 ft | 443 kts | 142° |
| 2026-04-30 10:26 | 24.20711 | 55.17691 | 19977 ft | 445 kts | 142° |
| 2026-04-30 10:27 | 24.17622 | 55.20731 | 20445 ft | 449 kts | 142° |
| 2026-04-30 10:27 | 24.15319 | 55.22999 | 20782 ft | 451 kts | 142° |
| 2026-04-30 10:27 | 24.13757 | 55.24538 | 21008 ft | 453 kts | 143° |
| 2026-04-30 10:27 | 24.10614 | 55.27632 | 21466 ft | 456 kts | 143° |
| 2026-04-30 10:28 | 24.09057 | 55.29163 | 21691 ft | 457 kts | 143° |
| 2026-04-30 10:28 | 24.06656 | 55.31495 | 22009 ft | 459 kts | 144° |
| 2026-04-30 10:28 | 24.04168 | 55.33696 | 22338 ft | 459 kts | 148° |
| 2026-04-30 10:28 | 24.01578 | 55.35761 | 22665 ft | 460 kts | 149° |
| 2026-04-30 10:29 | 23.98988 | 55.37771 | 22973 ft | 462 kts | 149° |
| 2026-04-30 10:29 | 23.96340 | 55.39817 | 23309 ft | 464 kts | 149° |
| 2026-04-30 10:29 | 23.93720 | 55.41847 | 23629 ft | 466 kts | 149° |
| 2026-04-30 10:29 | 23.90172 | 55.44600 | 24015 ft | 469 kts | 149° |
| 2026-04-30 10:30 | 23.88366 | 55.45906 | 24197 ft | 466 kts | 156° |
| 2026-04-30 10:30 | 23.84366 | 55.47347 | 24522 ft | 452 kts | 179° |
| 2026-04-30 10:30 | 23.81260 | 55.47250 | 24814 ft | 442 kts | 195° |
| 2026-04-30 10:30 | 23.79269 | 55.46728 | 25053 ft | 439 kts | 199° |
| 2026-04-30 10:31 | 23.75331 | 55.45541 | 25599 ft | 438 kts | 199° |
| 2026-04-30 10:31 | 23.72403 | 55.44654 | 25986 ft | 437 kts | 199° |
| 2026-04-30 10:31 | 23.69507 | 55.43783 | 26365 ft | 436 kts | 199° |
| 2026-04-30 10:31 | 23.67546 | 55.43198 | 26611 ft | 435 kts | 199° |
| 2026-04-30 10:32 | 23.64622 | 55.42331 | 26973 ft | 434 kts | 199° |
| 2026-04-30 10:32 | 23.60776 | 55.41193 | 27418 ft | 433 kts | 199° |
| 2026-04-30 10:32 | 23.57950 | 55.40109 | 27708 ft | 428 kts | 210° |
| 2026-04-30 10:32 | 23.55477 | 55.38332 | 27987 ft | 424 kts | 223° |
| 2026-04-30 10:33 | 23.53493 | 55.35966 | 28283 ft | 421 kts | 236° |
| 2026-04-30 10:33 | 23.52100 | 55.33181 | 28575 ft | 420 kts | 248° |
| 2026-04-30 10:33 | 23.51358 | 55.30141 | 28854 ft | 421 kts | 261° |
| 2026-04-30 10:33 | 23.51139 | 55.26963 | 29167 ft | 421 kts | 265° |
| 2026-04-30 10:34 | 23.51005 | 55.23758 | 29465 ft | 421 kts | 265° |
| 2026-04-30 10:34 | 23.50885 | 55.20571 | 29711 ft | 421 kts | 265° |
| 2026-04-30 10:34 | 23.50764 | 55.17372 | 29967 ft | 421 kts | 265° |
| 2026-04-30 10:34 | 23.50643 | 55.14173 | 30216 ft | 421 kts | 265° |
| 2026-04-30 10:35 | 23.50520 | 55.10987 | 30430 ft | 422 kts | 265° |
| 2026-04-30 10:35 | 23.50396 | 55.07772 | 30630 ft | 423 kts | 265° |
| 2026-04-30 10:35 | 23.50271 | 55.04564 | 30825 ft | 423 kts | 265° |
| 2026-04-30 10:35 | 23.50145 | 55.01357 | 31013 ft | 424 kts | 265° |
| 2026-04-30 10:36 | 23.50018 | 54.98150 | 31183 ft | 425 kts | 265° |
| 2026-04-30 10:36 | 23.49890 | 54.94923 | 31347 ft | 426 kts | 265° |
| 2026-04-30 10:36 | 23.49803 | 54.92747 | 31459 ft | 427 kts | 265° |
| 2026-04-30 10:36 | 23.49630 | 54.88452 | 31688 ft | 428 kts | 265° |
| 2026-04-30 10:37 | 23.49367 | 54.81936 | 31800 ft | 428 kts | 265° |
| 2026-04-30 10:37 | 23.49101 | 54.75444 | 31807 ft | 428 kts | 265° |
| 2026-04-30 10:38 | 23.48833 | 54.68959 | 31809 ft | 428 kts | 265° |
| 2026-04-30 10:38 | 23.48609 | 54.63586 | 31810 ft | 428 kts | 265° |
| 2026-04-30 10:39 | 23.48381 | 54.58165 | 31809 ft | 427 kts | 265° |
| 2026-04-30 10:40 | 23.47738 | 54.43110 | 31809 ft | 427 kts | 265° |
| 2026-04-30 10:40 | 23.47504 | 54.37703 | 31809 ft | 426 kts | 265° |
| 2026-04-30 10:41 | 23.47223 | 54.31268 | 31810 ft | 427 kts | 264° |
| 2026-04-30 10:41 | 23.46940 | 54.24816 | 31809 ft | 426 kts | 264° |
| 2026-04-30 10:42 | 23.46606 | 54.17292 | 31809 ft | 426 kts | 264° |
| 2026-04-30 10:42 | 23.46315 | 54.10848 | 31809 ft | 426 kts | 264° |
| 2026-04-30 10:43 | 23.46022 | 54.04400 | 31809 ft | 426 kts | 264° |
| 2026-04-30 10:43 | 23.45774 | 53.99004 | 31810 ft | 425 kts | 264° |
| 2026-04-30 10:45 | 23.44864 | 53.79505 | 31813 ft | 424 kts | 264° |
| 2026-04-30 10:45 | 23.44558 | 53.73036 | 31816 ft | 425 kts | 264° |
| 2026-04-30 10:46 | 23.44250 | 53.66573 | 31819 ft | 425 kts | 264° |
| 2026-04-30 10:46 | 23.43936 | 53.60073 | 31820 ft | 425 kts | 264° |
| 2026-04-30 10:47 | 23.43623 | 53.53645 | 31821 ft | 425 kts | 264° |
| 2026-04-30 10:47 | 23.43308 | 53.47230 | 31822 ft | 425 kts | 265° |
| 2026-04-30 10:48 | 23.42986 | 53.40737 | 31822 ft | 425 kts | 264° |
| 2026-04-30 10:48 | 23.42664 | 53.34310 | 31824 ft | 425 kts | 264° |
| 2026-04-30 10:49 | 23.42342 | 53.27877 | 31823 ft | 424 kts | 264° |
| 2026-04-30 10:49 | 23.42013 | 53.21392 | 31823 ft | 424 kts | 264° |
| 2026-04-30 10:50 | 23.41681 | 53.14952 | 31825 ft | 424 kts | 264° |
| 2026-04-30 10:50 | 23.41347 | 53.08510 | 31825 ft | 424 kts | 264° |
| 2026-04-30 10:51 | 23.40767 | 53.02144 | 31825 ft | 423 kts | 259° |
| 2026-04-30 10:51 | 23.39448 | 52.95889 | 31828 ft | 421 kts | 252° |
| 2026-04-30 10:52 | 23.37417 | 52.89914 | 31830 ft | 420 kts | 245° |
| 2026-04-30 10:52 | 23.34753 | 52.84282 | 31834 ft | 419 kts | 241° |
| 2026-04-30 10:53 | 23.31924 | 52.78757 | 31834 ft | 419 kts | 241° |
| 2026-04-30 10:53 | 23.29083 | 52.73228 | 31834 ft | 419 kts | 241° |
| 2026-04-30 10:54 | 23.26216 | 52.67655 | 31834 ft | 419 kts | 241° |
| 2026-04-30 10:54 | 23.23374 | 52.62138 | 31834 ft | 419 kts | 241° |
| 2026-04-30 10:55 | 23.20518 | 52.56593 | 31833 ft | 419 kts | 242° |
| 2026-04-30 10:55 | 23.17961 | 52.50887 | 31834 ft | 419 kts | 246° |
| 2026-04-30 10:56 | 23.15908 | 52.44954 | 31835 ft | 419 kts | 250° |
| 2026-04-30 10:56 | 23.14010 | 52.38990 | 31834 ft | 419 kts | 250° |
| 2026-04-30 10:57 | 23.12108 | 52.32979 | 31836 ft | 419 kts | 250° |
| 2026-04-30 10:57 | 23.10209 | 52.26969 | 31834 ft | 419 kts | 250° |
| 2026-04-30 10:58 | 23.08308 | 52.20982 | 31833 ft | 419 kts | 250° |
| 2026-04-30 10:58 | 23.06395 | 52.14978 | 31834 ft | 420 kts | 250° |
| 2026-04-30 10:59 | 23.04480 | 52.08982 | 31834 ft | 420 kts | 250° |
| 2026-04-30 10:59 | 23.02571 | 52.03017 | 31835 ft | 420 kts | 250° |
| 2026-04-30 11:00 | 23.00646 | 51.96991 | 31837 ft | 419 kts | 250° |
| 2026-04-30 11:00 | 22.98740 | 51.91020 | 31840 ft | 418 kts | 250° |
| 2026-04-30 11:01 | 22.96827 | 51.85051 | 31843 ft | 418 kts | 250° |
| 2026-04-30 11:01 | 22.94915 | 51.79102 | 31846 ft | 419 kts | 250° |
| 2026-04-30 11:02 | 22.92986 | 51.73108 | 31848 ft | 419 kts | 250° |
| 2026-04-30 11:02 | 22.91054 | 51.67118 | 31848 ft | 419 kts | 250° |
| 2026-04-30 11:03 | 22.89124 | 51.61170 | 31848 ft | 419 kts | 250° |
| 2026-04-30 11:04 | 22.86198 | 51.52211 | 31848 ft | 419 kts | 250° |
| 2026-04-30 11:04 | 22.84438 | 51.46203 | 31850 ft | 420 kts | 254° |
| 2026-04-30 11:05 | 22.83109 | 51.39613 | 31851 ft | 420 kts | 258° |
| 2026-04-30 11:05 | 22.82015 | 51.33423 | 31853 ft | 420 kts | 258° |
| 2026-04-30 11:06 | 22.80917 | 51.27192 | 31852 ft | 420 kts | 258° |
| 2026-04-30 11:06 | 22.79944 | 51.20896 | 31853 ft | 422 kts | 263° |
| 2026-04-30 11:07 | 22.80118 | 51.14535 | 31855 ft | 426 kts | 276° |
| 2026-04-30 11:07 | 22.81648 | 51.08308 | 31855 ft | 430 kts | 288° |
| 2026-04-30 11:08 | 22.84485 | 51.02580 | 31861 ft | 437 kts | 299° |
| 2026-04-30 11:08 | 22.87969 | 50.97141 | 31861 ft | 437 kts | 300° |
| 2026-04-30 11:09 | 22.91480 | 50.91727 | 31865 ft | 437 kts | 300° |
| 2026-04-30 11:09 | 22.94964 | 50.86340 | 31870 ft | 436 kts | 300° |
| 2026-04-30 11:10 | 22.98432 | 50.80967 | 31874 ft | 435 kts | 300° |
| 2026-04-30 11:10 | 23.01909 | 50.75571 | 31877 ft | 435 kts | 300° |
| 2026-04-30 11:11 | 23.05368 | 50.70196 | 31876 ft | 435 kts | 300° |
| 2026-04-30 11:11 | 23.08833 | 50.64808 | 31876 ft | 434 kts | 300° |
| 2026-04-30 11:12 | 23.12287 | 50.59452 | 31877 ft | 434 kts | 300° |
| 2026-04-30 11:12 | 23.15768 | 50.54071 | 31877 ft | 433 kts | 300° |
| 2026-04-30 11:13 | 23.19239 | 50.48674 | 32062 ft | 434 kts | 300° |
| 2026-04-30 11:13 | 23.20959 | 50.45992 | 32307 ft | 433 kts | 300° |
| 2026-04-30 11:13 | 23.22665 | 50.43331 | 32513 ft | 432 kts | 300° |
| 2026-04-30 11:13 | 23.24388 | 50.40641 | 32690 ft | 432 kts | 300° |
| 2026-04-30 11:14 | 23.26120 | 50.37933 | 32860 ft | 431 kts | 300° |
| 2026-04-30 11:14 | 23.27819 | 50.35273 | 33008 ft | 432 kts | 300° |
| 2026-04-30 11:14 | 23.29537 | 50.32576 | 33180 ft | 431 kts | 299° |
| 2026-04-30 11:14 | 23.31246 | 50.29886 | 33366 ft | 431 kts | 299° |
| 2026-04-30 11:15 | 23.32946 | 50.27212 | 33529 ft | 431 kts | 299° |
| 2026-04-30 11:15 | 23.34649 | 50.24533 | 33691 ft | 430 kts | 299° |
| 2026-04-30 11:15 | 23.36346 | 50.21864 | 33829 ft | 431 kts | 299° |
| 2026-04-30 11:16 | 23.39749 | 50.16518 | 33853 ft | 430 kts | 299° |
| 2026-04-30 11:16 | 23.43165 | 50.11146 | 33858 ft | 430 kts | 299° |
| 2026-04-30 11:17 | 23.46557 | 50.05808 | 33861 ft | 430 kts | 299° |
| 2026-04-30 11:17 | 23.49954 | 50.00457 | 33864 ft | 429 kts | 298° |
| 2026-04-30 11:18 | 23.53341 | 49.95117 | 33863 ft | 427 kts | 298° |
| 2026-04-30 11:18 | 23.58414 | 49.87107 | 33863 ft | 427 kts | 298° |
| 2026-04-30 11:19 | 23.61774 | 49.81795 | 33863 ft | 426 kts | 298° |
| 2026-04-30 11:19 | 23.65149 | 49.76452 | 33863 ft | 426 kts | 298° |
| 2026-04-30 11:20 | 23.68517 | 49.71116 | 33862 ft | 426 kts | 298° |
| 2026-04-30 11:20 | 23.71884 | 49.65774 | 33862 ft | 426 kts | 298° |
| 2026-04-30 11:21 | 23.75249 | 49.60432 | 33862 ft | 426 kts | 298° |
| 2026-04-30 11:21 | 23.78602 | 49.55103 | 33863 ft | 426 kts | 298° |
| 2026-04-30 11:22 | 23.81954 | 49.49770 | 33862 ft | 426 kts | 298° |
| 2026-04-30 11:22 | 23.85308 | 49.44427 | 33862 ft | 426 kts | 298° |
| 2026-04-30 11:23 | 23.88641 | 49.39113 | 33862 ft | 426 kts | 298° |
| 2026-04-30 11:24 | 23.93661 | 49.31084 | 33864 ft | 425 kts | 298° |
| 2026-04-30 11:24 | 23.97001 | 49.25726 | 33863 ft | 425 kts | 298° |
| 2026-04-30 11:25 | 24.01978 | 49.17763 | 33864 ft | 421 kts | 298° |
| 2026-04-30 11:26 | 24.08552 | 49.07217 | 33877 ft | 419 kts | 297° |
| 2026-04-30 11:26 | 24.11852 | 49.01935 | 33890 ft | 418 kts | 298° |
| 2026-04-30 11:27 | 24.15122 | 48.96685 | 33906 ft | 417 kts | 296° |
| 2026-04-30 11:27 | 24.18036 | 48.91226 | 33921 ft | 411 kts | 291° |
| 2026-04-30 11:28 | 24.21392 | 48.82681 | 33930 ft | 405 kts | 285° |
| 2026-04-30 11:29 | 24.23332 | 48.76886 | 33930 ft | 405 kts | 285° |
| 2026-04-30 11:29 | 24.26232 | 48.68180 | 33930 ft | 404 kts | 285° |
| 2026-04-30 11:30 | 24.29116 | 48.59502 | 33929 ft | 404 kts | 285° |
| 2026-04-30 11:31 | 24.31038 | 48.53708 | 33930 ft | 405 kts | 285° |
| 2026-04-30 11:31 | 24.32965 | 48.47889 | 33930 ft | 405 kts | 285° |
| 2026-04-30 11:32 | 24.34888 | 48.42073 | 33930 ft | 404 kts | 285° |
| 2026-04-30 11:32 | 24.36805 | 48.36270 | 33930 ft | 404 kts | 285° |
| 2026-04-30 11:33 | 24.39669 | 48.27560 | 33930 ft | 404 kts | 284° |
| 2026-04-30 11:33 | 24.41571 | 48.21766 | 33930 ft | 404 kts | 284° |
| 2026-04-30 11:34 | 24.43481 | 48.15948 | 33930 ft | 404 kts | 284° |
| 2026-04-30 11:34 | 24.45385 | 48.10146 | 33930 ft | 404 kts | 284° |
| 2026-04-30 11:35 | 24.47287 | 48.04338 | 33930 ft | 404 kts | 284° |
| 2026-04-30 11:35 | 24.49188 | 47.98525 | 33932 ft | 403 kts | 284° |
| 2026-04-30 11:36 | 24.51073 | 47.92755 | 33931 ft | 402 kts | 284° |
| 2026-04-30 11:36 | 24.52954 | 47.86981 | 33933 ft | 402 kts | 284° |
| 2026-04-30 11:37 | 24.54847 | 47.81166 | 33937 ft | 401 kts | 284° |
| 2026-04-30 11:37 | 24.56726 | 47.75393 | 33941 ft | 401 kts | 284° |
| 2026-04-30 11:38 | 24.58598 | 47.69630 | 33944 ft | 400 kts | 284° |
| 2026-04-30 11:38 | 24.60464 | 47.63876 | 33945 ft | 399 kts | 284° |
| 2026-04-30 11:39 | 24.62319 | 47.58143 | 33945 ft | 399 kts | 284° |
| 2026-04-30 11:39 | 24.64190 | 47.52354 | 33945 ft | 399 kts | 284° |
| 2026-04-30 11:40 | 24.66041 | 47.46617 | 33944 ft | 398 kts | 284° |
| 2026-04-30 11:40 | 24.67883 | 47.40898 | 33944 ft | 398 kts | 284° |
| 2026-04-30 11:41 | 24.69731 | 47.35147 | 33944 ft | 397 kts | 284° |
| 2026-04-30 11:41 | 24.71562 | 47.29430 | 33945 ft | 396 kts | 283° |
| 2026-04-30 11:42 | 24.73395 | 47.23705 | 33944 ft | 396 kts | 283° |
| 2026-04-30 11:42 | 24.75226 | 47.17980 | 33944 ft | 396 kts | 283° |
| 2026-04-30 11:43 | 24.77048 | 47.12282 | 33944 ft | 395 kts | 283° |
| 2026-04-30 11:43 | 24.78879 | 47.06545 | 33944 ft | 395 kts | 283° |
| 2026-04-30 11:44 | 24.80690 | 47.00866 | 33944 ft | 394 kts | 283° |
| 2026-04-30 11:44 | 24.82502 | 46.95174 | 33946 ft | 394 kts | 283° |
| 2026-04-30 11:45 | 24.84310 | 46.89485 | 33951 ft | 394 kts | 283° |
| 2026-04-30 11:45 | 24.86223 | 46.83795 | 33957 ft | 396 kts | 287° |
| 2026-04-30 11:46 | 24.88754 | 46.78341 | 33964 ft | 403 kts | 294° |
| 2026-04-30 11:46 | 24.91984 | 46.73228 | 33969 ft | 410 kts | 301° |
| 2026-04-30 11:47 | 24.95889 | 46.68569 | 33970 ft | 418 kts | 308° |
| 2026-04-30 11:47 | 25.00146 | 46.64212 | 33970 ft | 419 kts | 308° |
| 2026-04-30 11:48 | 25.04433 | 46.59859 | 33970 ft | 419 kts | 308° |
| 2026-04-30 11:48 | 25.08711 | 46.55512 | 33969 ft | 419 kts | 308° |
| 2026-04-30 11:49 | 25.13012 | 46.51150 | 33969 ft | 419 kts | 308° |
| 2026-04-30 11:49 | 25.17300 | 46.46810 | 33970 ft | 419 kts | 308° |
| 2026-04-30 11:50 | 25.21583 | 46.42453 | 33970 ft | 418 kts | 308° |
| 2026-04-30 11:50 | 25.25878 | 46.38071 | 33970 ft | 419 kts | 308° |
| 2026-04-30 11:51 | 25.30172 | 46.33678 | 33974 ft | 419 kts | 307° |
| 2026-04-30 11:51 | 25.34417 | 46.29312 | 33971 ft | 418 kts | 307° |
| 2026-04-30 11:52 | 25.38688 | 46.24925 | 33971 ft | 418 kts | 307° |
| 2026-04-30 11:52 | 25.42939 | 46.20562 | 33970 ft | 418 kts | 307° |
| 2026-04-30 11:53 | 25.47194 | 46.16193 | 33970 ft | 418 kts | 307° |
| 2026-04-30 11:53 | 25.51463 | 46.11804 | 33970 ft | 418 kts | 307° |
| 2026-04-30 11:54 | 25.55733 | 46.07412 | 33970 ft | 417 kts | 307° |
| 2026-04-30 11:54 | 25.59978 | 46.03038 | 33970 ft | 417 kts | 307° |
| 2026-04-30 11:55 | 25.64218 | 45.98673 | 33970 ft | 418 kts | 307° |
| 2026-04-30 11:55 | 25.68509 | 45.94250 | 33970 ft | 418 kts | 307° |
| 2026-04-30 11:56 | 25.72751 | 45.89872 | 33970 ft | 418 kts | 307° |
| 2026-04-30 11:56 | 25.77010 | 45.85472 | 33971 ft | 418 kts | 306° |
| 2026-04-30 11:57 | 25.81276 | 45.81059 | 33969 ft | 418 kts | 306° |
| 2026-04-30 11:57 | 25.85518 | 45.76665 | 33965 ft | 418 kts | 306° |
| 2026-04-30 11:58 | 25.89750 | 45.72277 | 33958 ft | 418 kts | 306° |
| 2026-04-30 11:58 | 25.93994 | 45.67869 | 33951 ft | 418 kts | 307° |
| 2026-04-30 11:59 | 25.98264 | 45.63430 | 33946 ft | 418 kts | 307° |
| 2026-04-30 11:59 | 26.02491 | 45.59032 | 33944 ft | 418 kts | 306° |
| 2026-04-30 12:00 | 26.06749 | 45.54595 | 33944 ft | 418 kts | 306° |
| 2026-04-30 12:00 | 26.11000 | 45.50161 | 33941 ft | 418 kts | 307° |
| 2026-04-30 12:01 | 26.15224 | 45.45779 | 33944 ft | 418 kts | 306° |
| 2026-04-30 12:01 | 26.19477 | 45.41348 | 33944 ft | 418 kts | 306° |
| 2026-04-30 12:02 | 26.23709 | 45.36927 | 33944 ft | 418 kts | 306° |
| 2026-04-30 12:02 | 26.27940 | 45.32487 | 33946 ft | 417 kts | 306° |
| 2026-04-30 12:03 | 26.34278 | 45.25834 | 33952 ft | 417 kts | 306° |
| 2026-04-30 12:04 | 26.38517 | 45.21390 | 33958 ft | 416 kts | 306° |
| 2026-04-30 12:04 | 26.42725 | 45.16971 | 33964 ft | 416 kts | 306° |
| 2026-04-30 12:05 | 26.46934 | 45.12545 | 33968 ft | 416 kts | 306° |
| 2026-04-30 12:05 | 26.51141 | 45.08116 | 33970 ft | 416 kts | 306° |
| 2026-04-30 12:06 | 26.55373 | 45.03654 | 33968 ft | 416 kts | 306° |
| 2026-04-30 12:06 | 26.59563 | 44.99235 | 33964 ft | 416 kts | 306° |
| 2026-04-30 12:07 | 26.63795 | 44.94773 | 33959 ft | 416 kts | 306° |
| 2026-04-30 12:07 | 26.68008 | 44.90323 | 33954 ft | 417 kts | 306° |
| 2026-04-30 12:08 | 26.72204 | 44.85885 | 33949 ft | 417 kts | 306° |
| 2026-04-30 12:08 | 26.76438 | 44.81403 | 33944 ft | 417 kts | 306° |
| 2026-04-30 12:09 | 26.80653 | 44.76933 | 33944 ft | 418 kts | 306° |
| 2026-04-30 12:09 | 26.84868 | 44.72454 | 33944 ft | 418 kts | 306° |
| 2026-04-30 12:10 | 26.89081 | 44.67971 | 33944 ft | 418 kts | 306° |
| 2026-04-30 12:10 | 26.93302 | 44.63474 | 33944 ft | 418 kts | 306° |
| 2026-04-30 12:11 | 26.97500 | 44.58994 | 33944 ft | 418 kts | 306° |
| 2026-04-30 12:11 | 27.01709 | 44.54500 | 33943 ft | 418 kts | 306° |
| 2026-04-30 12:12 | 27.05927 | 44.49989 | 33944 ft | 419 kts | 306° |
| 2026-04-30 12:12 | 27.10160 | 44.45452 | 33943 ft | 419 kts | 306° |
| 2026-04-30 12:13 | 27.14400 | 44.40931 | 34163 ft | 419 kts | 306° |
| 2026-04-30 12:13 | 27.16501 | 44.38687 | 34334 ft | 418 kts | 306° |
| 2026-04-30 12:13 | 27.18612 | 44.36431 | 34501 ft | 417 kts | 306° |
| 2026-04-30 12:13 | 27.20702 | 44.34201 | 34673 ft | 416 kts | 306° |
| 2026-04-30 12:14 | 27.22797 | 44.31950 | 34859 ft | 414 kts | 306° |
| 2026-04-30 12:14 | 27.24898 | 44.29688 | 35016 ft | 414 kts | 306° |
| 2026-04-30 12:14 | 27.26953 | 44.27476 | 35214 ft | 412 kts | 306° |
| 2026-04-30 12:14 | 27.29013 | 44.25262 | 35478 ft | 408 kts | 306° |
| 2026-04-30 12:15 | 27.31058 | 44.23063 | 35684 ft | 405 kts | 306° |
| 2026-04-30 12:15 | 27.33096 | 44.20870 | 35824 ft | 405 kts | 306° |
| 2026-04-30 12:15 | 27.35121 | 44.18687 | 35932 ft | 405 kts | 306° |
| 2026-04-30 12:16 | 27.39192 | 44.14297 | 35938 ft | 405 kts | 306° |
| 2026-04-30 12:16 | 27.43270 | 44.09896 | 35941 ft | 405 kts | 306° |
| 2026-04-30 12:17 | 27.49355 | 44.03324 | 35942 ft | 405 kts | 306° |
| 2026-04-30 12:17 | 27.53431 | 43.98915 | 35941 ft | 405 kts | 306° |
| 2026-04-30 12:18 | 27.57487 | 43.94523 | 35943 ft | 405 kts | 306° |
| 2026-04-30 12:18 | 27.61565 | 43.90104 | 35948 ft | 405 kts | 306° |
| 2026-04-30 12:19 | 27.65619 | 43.85707 | 35954 ft | 404 kts | 306° |
| 2026-04-30 12:19 | 27.69664 | 43.81313 | 35960 ft | 405 kts | 306° |
| 2026-04-30 12:20 | 27.73732 | 43.76884 | 35966 ft | 409 kts | 306° |
| 2026-04-30 12:20 | 27.77853 | 43.72397 | 35968 ft | 410 kts | 306° |
| 2026-04-30 12:21 | 27.81974 | 43.67907 | 35968 ft | 410 kts | 306° |
| 2026-04-30 12:21 | 27.85985 | 43.63374 | 35968 ft | 406 kts | 303° |
| 2026-04-30 12:22 | 27.89868 | 43.58705 | 35968 ft | 406 kts | 303° |
| 2026-04-30 12:22 | 27.93722 | 43.54060 | 35968 ft | 406 kts | 303° |
| 2026-04-30 12:23 | 27.97584 | 43.49400 | 35968 ft | 406 kts | 303° |
| 2026-04-30 12:23 | 28.01447 | 43.44734 | 35959 ft | 406 kts | 303° |
| 2026-04-30 12:24 | 28.05327 | 43.40041 | 35949 ft | 407 kts | 304° |
| 2026-04-30 12:24 | 28.09194 | 43.35361 | 35944 ft | 408 kts | 304° |
| 2026-04-30 12:25 | 28.13081 | 43.30657 | 35943 ft | 408 kts | 303° |
| 2026-04-30 12:25 | 28.16953 | 43.25976 | 35942 ft | 408 kts | 303° |
| 2026-04-30 12:26 | 28.20829 | 43.21273 | 35943 ft | 408 kts | 303° |
| 2026-04-30 12:26 | 28.24716 | 43.16550 | 35942 ft | 407 kts | 303° |
| 2026-04-30 12:27 | 28.28572 | 43.11859 | 35945 ft | 407 kts | 303° |
| 2026-04-30 12:27 | 28.32443 | 43.07141 | 35948 ft | 408 kts | 303° |
| 2026-04-30 12:28 | 28.36289 | 43.02448 | 35954 ft | 408 kts | 304° |
| 2026-04-30 12:28 | 28.40169 | 42.97709 | 35959 ft | 408 kts | 304° |
| 2026-04-30 12:29 | 28.44021 | 42.92996 | 35963 ft | 408 kts | 304° |
| 2026-04-30 12:29 | 28.47885 | 42.88265 | 35967 ft | 408 kts | 304° |
| 2026-04-30 12:30 | 28.51746 | 42.83532 | 35968 ft | 408 kts | 304° |
| 2026-04-30 12:30 | 28.55164 | 42.78522 | 35966 ft | 392 kts | 289° |
| 2026-04-30 12:31 | 28.57227 | 42.72817 | 35969 ft | 387 kts | 284° |
| 2026-04-30 12:31 | 28.58653 | 42.66973 | 35968 ft | 380 kts | 275° |
| 2026-04-30 12:32 | 28.59466 | 42.61029 | 35968 ft | 380 kts | 274° |
| 2026-04-30 12:32 | 28.60229 | 42.55072 | 35968 ft | 381 kts | 274° |
| 2026-04-30 12:33 | 28.60991 | 42.49106 | 35968 ft | 381 kts | 274° |
| 2026-04-30 12:33 | 28.61756 | 42.43116 | 35968 ft | 381 kts | 274° |
| 2026-04-30 12:34 | 28.62516 | 42.37176 | 35968 ft | 381 kts | 274° |
| 2026-04-30 12:34 | 28.63520 | 42.31197 | 35970 ft | 386 kts | 282° |
| 2026-04-30 12:35 | 28.65800 | 42.25603 | 35970 ft | 397 kts | 295° |
| 2026-04-30 12:35 | 28.69376 | 42.20640 | 35967 ft | 413 kts | 308° |
| 2026-04-30 12:36 | 28.73870 | 42.16396 | 35963 ft | 419 kts | 312° |
| 2026-04-30 12:36 | 28.78427 | 42.12264 | 35956 ft | 419 kts | 312° |
| 2026-04-30 12:37 | 28.82968 | 42.08147 | 35949 ft | 419 kts | 312° |
| 2026-04-30 12:37 | 28.87513 | 42.04018 | 35944 ft | 419 kts | 312° |
| 2026-04-30 12:38 | 28.92077 | 41.99868 | 35943 ft | 419 kts | 312° |
| 2026-04-30 12:38 | 28.96641 | 41.95710 | 35944 ft | 419 kts | 312° |
| 2026-04-30 12:39 | 29.01182 | 41.91572 | 35949 ft | 419 kts | 312° |
| 2026-04-30 12:39 | 29.05744 | 41.87410 | 35957 ft | 419 kts | 312° |
| 2026-04-30 12:40 | 29.10305 | 41.83241 | 35966 ft | 419 kts | 313° |
| 2026-04-30 12:40 | 29.14875 | 41.79088 | 35975 ft | 419 kts | 313° |
| 2026-04-30 12:41 | 29.19429 | 41.74937 | 35984 ft | 419 kts | 313° |
| 2026-04-30 12:41 | 29.23970 | 41.70782 | 35991 ft | 420 kts | 313° |
| 2026-04-30 12:42 | 29.28539 | 41.66591 | 35994 ft | 419 kts | 313° |
| 2026-04-30 12:42 | 29.33090 | 41.62410 | 35993 ft | 419 kts | 313° |
| 2026-04-30 12:43 | 29.37641 | 41.58222 | 35984 ft | 419 kts | 313° |
| 2026-04-30 12:43 | 29.42194 | 41.54027 | 35970 ft | 419 kts | 313° |
| 2026-04-30 12:44 | 29.46755 | 41.49819 | 35958 ft | 419 kts | 313° |
| 2026-04-30 12:44 | 29.51329 | 41.45595 | 35948 ft | 419 kts | 313° |
| 2026-04-30 12:45 | 29.55850 | 41.41415 | 35944 ft | 419 kts | 313° |
| 2026-04-30 12:45 | 29.60403 | 41.37201 | 35942 ft | 419 kts | 313° |
| 2026-04-30 12:46 | 29.64935 | 41.32990 | 35943 ft | 418 kts | 312° |
| 2026-04-30 12:46 | 29.69482 | 41.28748 | 35943 ft | 418 kts | 312° |
| 2026-04-30 12:47 | 29.73992 | 41.24548 | 35942 ft | 418 kts | 312° |
| 2026-04-30 12:47 | 29.78521 | 41.20331 | 35942 ft | 418 kts | 312° |
| 2026-04-30 12:48 | 29.82987 | 41.16170 | 35942 ft | 418 kts | 312° |
| 2026-04-30 12:48 | 29.87490 | 41.11971 | 35942 ft | 418 kts | 312° |
| 2026-04-30 12:49 | 29.92016 | 41.07745 | 35943 ft | 418 kts | 312° |
| 2026-04-30 12:49 | 29.96537 | 41.03520 | 35943 ft | 417 kts | 312° |
| 2026-04-30 12:50 | 30.01026 | 40.99319 | 35949 ft | 418 kts | 313° |
| 2026-04-30 12:50 | 30.05569 | 40.95058 | 35964 ft | 419 kts | 313° |
| 2026-04-30 12:51 | 30.10087 | 40.90823 | 35979 ft | 419 kts | 313° |
| 2026-04-30 12:51 | 30.14654 | 40.86562 | 35992 ft | 419 kts | 313° |
| 2026-04-30 12:52 | 30.19159 | 40.82343 | 36003 ft | 419 kts | 313° |
| 2026-04-30 12:52 | 30.23681 | 40.78089 | 36013 ft | 419 kts | 313° |
| 2026-04-30 12:53 | 30.28188 | 40.73838 | 36020 ft | 418 kts | 313° |
| 2026-04-30 12:53 | 30.32703 | 40.69571 | 36023 ft | 418 kts | 313° |
| 2026-04-30 12:54 | 30.37193 | 40.65326 | 36023 ft | 418 kts | 313° |
| 2026-04-30 12:54 | 30.41578 | 40.60979 | 36023 ft | 416 kts | 311° |
| 2026-04-30 12:55 | 30.45936 | 40.56529 | 36023 ft | 416 kts | 311° |
| 2026-04-30 12:55 | 30.50276 | 40.52084 | 36023 ft | 416 kts | 311° |
| 2026-04-30 12:56 | 30.54613 | 40.47635 | 36023 ft | 417 kts | 311° |
| 2026-04-30 12:56 | 30.58970 | 40.43158 | 36023 ft | 417 kts | 311° |
| 2026-04-30 12:57 | 30.63320 | 40.38683 | 36020 ft | 417 kts | 311° |
| 2026-04-30 12:57 | 30.67668 | 40.34203 | 36018 ft | 417 kts | 310° |
| 2026-04-30 12:58 | 30.71991 | 40.29718 | 36008 ft | 417 kts | 310° |
| 2026-04-30 12:58 | 30.76324 | 40.25230 | 36001 ft | 417 kts | 310° |
| 2026-04-30 12:59 | 30.80644 | 40.20758 | 35998 ft | 417 kts | 310° |
| 2026-04-30 12:59 | 30.84988 | 40.16257 | 35997 ft | 417 kts | 310° |
| 2026-04-30 13:00 | 30.89325 | 40.11762 | 35997 ft | 418 kts | 310° |
| 2026-04-30 13:00 | 30.93693 | 40.07226 | 35997 ft | 419 kts | 310° |
| 2026-04-30 13:01 | 30.98018 | 40.02733 | 35997 ft | 419 kts | 310° |
| 2026-04-30 13:01 | 31.02389 | 39.98181 | 35997 ft | 419 kts | 311° |
| 2026-04-30 13:02 | 31.06741 | 39.93648 | 35997 ft | 420 kts | 311° |
| 2026-04-30 13:02 | 31.11138 | 39.89066 | 35996 ft | 421 kts | 311° |
| 2026-04-30 13:03 | 31.15499 | 39.84544 | 35997 ft | 421 kts | 311° |
| 2026-04-30 13:03 | 31.19877 | 39.79980 | 35997 ft | 421 kts | 311° |
| 2026-04-30 13:04 | 31.24222 | 39.75435 | 35997 ft | 421 kts | 311° |
| 2026-04-30 13:04 | 31.28591 | 39.70853 | 35997 ft | 421 kts | 311° |
| 2026-04-30 13:05 | 31.32977 | 39.66243 | 35997 ft | 422 kts | 311° |
| 2026-04-30 13:06 | 31.39501 | 39.59374 | 35997 ft | 422 kts | 311° |
| 2026-04-30 13:06 | 31.43876 | 39.54764 | 35997 ft | 422 kts | 311° |
| 2026-04-30 13:07 | 31.48238 | 39.50172 | 35997 ft | 422 kts | 311° |
| 2026-04-30 13:07 | 31.52611 | 39.45559 | 35997 ft | 422 kts | 311° |
| 2026-04-30 13:08 | 31.56952 | 39.40969 | 35997 ft | 422 kts | 311° |
| 2026-04-30 13:08 | 31.61334 | 39.36326 | 35997 ft | 422 kts | 311° |
| 2026-04-30 13:09 | 31.65684 | 39.31696 | 35998 ft | 422 kts | 311° |
| 2026-04-30 13:09 | 31.70020 | 39.27071 | 35997 ft | 422 kts | 311° |
| 2026-04-30 13:10 | 31.74370 | 39.22445 | 35996 ft | 422 kts | 311° |
| 2026-04-30 13:10 | 31.78977 | 39.18069 | 35997 ft | 428 kts | 317° |
| 2026-04-30 13:11 | 31.83986 | 39.14226 | 35997 ft | 433 kts | 323° |
| 2026-04-30 13:11 | 31.89333 | 39.10908 | 35996 ft | 436 kts | 326° |
| 2026-04-30 13:12 | 31.94766 | 39.07715 | 35996 ft | 436 kts | 326° |
| 2026-04-30 13:12 | 32.00191 | 39.04517 | 35995 ft | 436 kts | 326° |
| 2026-04-30 13:13 | 32.08333 | 38.99707 | 35996 ft | 439 kts | 327° |
| 2026-04-30 13:14 | 32.16546 | 38.94892 | 35995 ft | 439 kts | 327° |
| 2026-04-30 13:14 | 32.24755 | 38.90051 | 35995 ft | 439 kts | 327° |
| 2026-04-30 13:15 | 32.32938 | 38.85203 | 35995 ft | 439 kts | 327° |
| 2026-04-30 13:16 | 32.38408 | 38.81955 | 35995 ft | 439 kts | 327° |
| 2026-04-30 13:16 | 32.43845 | 38.78721 | 35995 ft | 439 kts | 327° |
| 2026-04-30 13:17 | 32.52024 | 38.73843 | 35995 ft | 439 kts | 327° |
| 2026-04-30 13:18 | 32.60200 | 38.68961 | 35995 ft | 439 kts | 327° |
| 2026-04-30 13:18 | 32.68475 | 38.64030 | 35995 ft | 440 kts | 327° |
| 2026-04-30 13:19 | 32.73963 | 38.60746 | 35995 ft | 440 kts | 327° |
| 2026-04-30 13:19 | 32.79405 | 38.57484 | 35995 ft | 440 kts | 327° |
| 2026-04-30 13:20 | 32.84892 | 38.54187 | 35995 ft | 440 kts | 327° |
| 2026-04-30 13:20 | 32.90328 | 38.50914 | 35995 ft | 440 kts | 328° |
| 2026-04-30 13:21 | 32.95807 | 38.47613 | 35995 ft | 441 kts | 328° |
| 2026-04-30 13:22 | 33.04439 | 38.42412 | 35995 ft | 442 kts | 328° |
| 2026-04-30 13:22 | 33.12693 | 38.37425 | 35995 ft | 442 kts | 328° |
| 2026-04-30 13:23 | 33.20931 | 38.32447 | 35995 ft | 442 kts | 328° |
| 2026-04-30 13:24 | 33.31880 | 38.25764 | 35995 ft | 443 kts | 328° |
| 2026-04-30 13:25 | 33.42857 | 38.19046 | 35995 ft | 444 kts | 328° |
| 2026-04-30 13:26 | 33.56648 | 38.10664 | 36005 ft | 445 kts | 328° |
| 2026-04-30 13:28 | 33.70447 | 38.02256 | 36021 ft | 446 kts | 328° |
| 2026-04-30 13:28 | 33.78749 | 37.97166 | 36022 ft | 445 kts | 327° |
| 2026-04-30 13:29 | 33.88419 | 37.88231 | 36022 ft | 435 kts | 309° |
| 2026-04-30 13:31 | 33.96958 | 37.73404 | 36023 ft | 430 kts | 299° |
| 2026-04-30 13:32 | 34.04932 | 37.58083 | 36023 ft | 431 kts | 299° |
| 2026-04-30 13:33 | 34.11301 | 37.45834 | 36023 ft | 431 kts | 300° |
| 2026-04-30 13:34 | 34.16104 | 37.36609 | 36023 ft | 432 kts | 298° |
| 2026-04-30 13:34 | 34.19973 | 37.26896 | 36023 ft | 427 kts | 287° |
| 2026-04-30 13:35 | 34.20886 | 37.23453 | 36023 ft | 427 kts | 283° |
| 2026-04-30 13:36 | 34.22718 | 37.09373 | 36022 ft | 425 kts | 274° |
| 2026-04-30 13:36 | 34.23541 | 36.98693 | 36014 ft | 425 kts | 274° |
| 2026-04-30 13:37 | 34.24359 | 36.88026 | 36004 ft | 425 kts | 274° |
| 2026-04-30 13:38 | 34.25169 | 36.77391 | 35999 ft | 424 kts | 274° |
| 2026-04-30 13:39 | 34.26232 | 36.63198 | 35997 ft | 424 kts | 274° |
| 2026-04-30 13:40 | 34.26831 | 36.52572 | 35997 ft | 423 kts | 272° |
| 2026-04-30 13:40 | 34.27105 | 36.45514 | 35997 ft | 423 kts | 272° |
| 2026-04-30 13:41 | 34.27372 | 36.38408 | 35997 ft | 422 kts | 272° |
| 2026-04-30 13:41 | 34.27632 | 36.31337 | 35997 ft | 422 kts | 271° |
| 2026-04-30 13:42 | 34.27890 | 36.24231 | 35997 ft | 422 kts | 271° |
| 2026-04-30 13:42 | 34.28268 | 36.13568 | 35997 ft | 422 kts | 271° |
| 2026-04-30 13:43 | 34.28511 | 36.06485 | 35998 ft | 422 kts | 271° |
| 2026-04-30 13:43 | 34.28756 | 35.99428 | 35996 ft | 421 kts | 271° |
| 2026-04-30 13:44 | 34.29078 | 35.92347 | 35997 ft | 421 kts | 272° |
| 2026-04-30 13:44 | 34.29405 | 35.85258 | 35997 ft | 421 kts | 272° |
| 2026-04-30 13:45 | 34.30042 | 35.74624 | 35996 ft | 422 kts | 276° |
| 2026-04-30 13:46 | 34.31079 | 35.67626 | 35996 ft | 424 kts | 282° |
| 2026-04-30 13:46 | 34.32700 | 35.60751 | 35996 ft | 425 kts | 287° |
| 2026-04-30 13:47 | 34.34597 | 35.53995 | 35997 ft | 425 kts | 287° |
| 2026-04-30 13:47 | 34.36519 | 35.47175 | 35997 ft | 426 kts | 287° |
| 2026-04-30 13:48 | 34.38418 | 35.40414 | 35997 ft | 426 kts | 287° |
| 2026-04-30 13:48 | 34.40326 | 35.33599 | 35999 ft | 426 kts | 286° |
| 2026-04-30 13:49 | 34.42226 | 35.26762 | 35997 ft | 426 kts | 287° |
| 2026-04-30 13:49 | 34.44114 | 35.19974 | 35997 ft | 426 kts | 287° |
| 2026-04-30 13:50 | 34.46196 | 35.13286 | 35996 ft | 428 kts | 294° |
| 2026-04-30 13:50 | 34.49346 | 35.07110 | 35997 ft | 432 kts | 305° |
| 2026-04-30 13:50 | 34.51322 | 35.04348 | 35997 ft | 434 kts | 311° |
| 2026-04-30 13:51 | 34.55964 | 34.99653 | 35997 ft | 440 kts | 323° |
| 2026-04-30 13:51 | 34.61255 | 34.95791 | 35994 ft | 442 kts | 326° |
| 2026-04-30 13:52 | 34.66577 | 34.92044 | 35990 ft | 442 kts | 326° |
| 2026-04-30 13:52 | 34.71860 | 34.88304 | 35986 ft | 442 kts | 326° |
| 2026-04-30 13:53 | 34.77150 | 34.84541 | 35981 ft | 442 kts | 326° |
| 2026-04-30 13:53 | 34.82446 | 34.80764 | 35977 ft | 442 kts | 326° |
| 2026-04-30 13:54 | 34.87744 | 34.76979 | 35973 ft | 442 kts | 326° |
| 2026-04-30 13:54 | 34.93042 | 34.73187 | 35971 ft | 442 kts | 326° |
| 2026-04-30 13:55 | 34.98359 | 34.69373 | 35970 ft | 443 kts | 326° |
| 2026-04-30 13:55 | 35.03680 | 34.65556 | 35970 ft | 443 kts | 326° |
| 2026-04-30 13:56 | 35.08962 | 34.61773 | 35970 ft | 443 kts | 326° |
| 2026-04-30 13:56 | 35.14261 | 34.57988 | 35970 ft | 444 kts | 326° |
| 2026-04-30 13:58 | 35.32318 | 34.44999 | 35971 ft | 445 kts | 326° |
| 2026-04-30 13:59 | 35.37651 | 34.41139 | 35971 ft | 446 kts | 327° |
| 2026-04-30 13:59 | 35.42984 | 34.37275 | 35971 ft | 446 kts | 327° |
| 2026-04-30 14:00 | 35.48342 | 34.33376 | 35971 ft | 446 kts | 326° |
| 2026-04-30 14:00 | 35.56322 | 34.27538 | 35971 ft | 447 kts | 326° |
| 2026-04-30 14:01 | 35.61660 | 34.23640 | 35970 ft | 447 kts | 326° |
| 2026-04-30 14:01 | 35.67012 | 34.19733 | 35970 ft | 447 kts | 326° |
| 2026-04-30 14:02 | 35.72380 | 34.15805 | 35971 ft | 448 kts | 326° |
| 2026-04-30 14:02 | 35.77714 | 34.11870 | 35970 ft | 448 kts | 326° |
| 2026-04-30 14:03 | 35.83004 | 34.07959 | 35971 ft | 448 kts | 326° |
| 2026-04-30 14:03 | 35.88306 | 34.04031 | 35971 ft | 448 kts | 326° |
| 2026-04-30 14:04 | 35.93637 | 34.00068 | 35971 ft | 448 kts | 326° |
| 2026-04-30 14:04 | 35.98943 | 33.96067 | 35970 ft | 448 kts | 326° |
| 2026-04-30 14:05 | 36.04263 | 33.92043 | 35970 ft | 448 kts | 326° |
| 2026-04-30 14:05 | 36.09558 | 33.88033 | 35970 ft | 448 kts | 326° |
| 2026-04-30 14:06 | 36.17531 | 33.82009 | 35971 ft | 448 kts | 326° |
| 2026-04-30 14:07 | 36.25467 | 33.75974 | 35971 ft | 448 kts | 326° |
| 2026-04-30 14:08 | 36.33432 | 33.69923 | 35971 ft | 447 kts | 326° |
| 2026-04-30 14:08 | 36.41346 | 33.63882 | 35971 ft | 447 kts | 326° |
| 2026-04-30 14:09 | 36.46626 | 33.59838 | 35970 ft | 447 kts | 326° |
| 2026-04-30 14:10 | 36.54440 | 33.53840 | 35972 ft | 447 kts | 326° |
| 2026-04-30 14:10 | 36.59675 | 33.49814 | 35976 ft | 447 kts | 326° |
| 2026-04-30 14:11 | 36.64957 | 33.45742 | 35982 ft | 446 kts | 326° |
| 2026-04-30 14:11 | 36.70216 | 33.41679 | 35989 ft | 446 kts | 326° |
| 2026-04-30 14:12 | 36.75491 | 33.37596 | 35993 ft | 446 kts | 326° |
| 2026-04-30 14:12 | 36.80751 | 33.33495 | 35994 ft | 445 kts | 323° |
| 2026-04-30 14:13 | 36.85712 | 33.28959 | 35994 ft | 443 kts | 317° |
| 2026-04-30 14:13 | 36.90244 | 33.23798 | 35994 ft | 440 kts | 311° |
| 2026-04-30 14:14 | 36.94384 | 33.18245 | 35996 ft | 439 kts | 310° |
| 2026-04-30 14:14 | 36.98521 | 33.12583 | 35995 ft | 439 kts | 310° |
| 2026-04-30 14:15 | 37.02623 | 33.06970 | 35995 ft | 439 kts | 310° |
| 2026-04-30 14:15 | 37.06718 | 33.01366 | 35995 ft | 439 kts | 310° |
| 2026-04-30 14:16 | 37.10831 | 32.95733 | 35995 ft | 438 kts | 310° |
| 2026-04-30 14:16 | 37.14946 | 32.90127 | 35996 ft | 439 kts | 310° |
| 2026-04-30 14:17 | 37.19054 | 32.84505 | 35999 ft | 439 kts | 310° |
| 2026-04-30 14:17 | 37.23172 | 32.78842 | 36004 ft | 438 kts | 310° |
| 2026-04-30 14:18 | 37.27274 | 32.73187 | 36010 ft | 438 kts | 310° |
| 2026-04-30 14:18 | 37.33394 | 32.64728 | 36018 ft | 438 kts | 309° |
| 2026-04-30 14:19 | 37.39523 | 32.56231 | 36023 ft | 437 kts | 309° |
| 2026-04-30 14:20 | 37.43604 | 32.50561 | 36023 ft | 437 kts | 309° |
| 2026-04-30 14:20 | 37.49703 | 32.42066 | 36023 ft | 437 kts | 309° |
| 2026-04-30 14:21 | 37.53779 | 32.36375 | 36023 ft | 437 kts | 309° |
| 2026-04-30 14:22 | 37.59824 | 32.27884 | 36024 ft | 437 kts | 309° |
| 2026-04-30 14:22 | 37.65885 | 32.19364 | 36023 ft | 437 kts | 308° |
| 2026-04-30 14:23 | 37.73845 | 32.07795 | 36022 ft | 436 kts | 308° |
| 2026-04-30 14:24 | 37.79778 | 31.99131 | 36016 ft | 436 kts | 308° |
| 2026-04-30 14:25 | 37.87607 | 31.87670 | 36006 ft | 436 kts | 308° |
| 2026-04-30 14:26 | 37.93507 | 31.79008 | 36000 ft | 436 kts | 308° |
| 2026-04-30 14:27 | 37.99434 | 31.70282 | 35997 ft | 436 kts | 308° |
| 2026-04-30 14:27 | 38.03372 | 31.64473 | 35997 ft | 436 kts | 308° |
| 2026-04-30 14:28 | 38.09270 | 31.55749 | 35996 ft | 436 kts | 308° |
| 2026-04-30 14:28 | 38.13189 | 31.49971 | 35997 ft | 435 kts | 308° |
| 2026-04-30 14:29 | 38.21040 | 31.38352 | 35998 ft | 434 kts | 308° |
| 2026-04-30 14:31 | 38.30698 | 31.23905 | 35997 ft | 433 kts | 307° |
| 2026-04-30 14:31 | 38.36524 | 31.15170 | 35997 ft | 432 kts | 307° |
| 2026-04-30 14:32 | 38.42300 | 31.06493 | 35992 ft | 432 kts | 307° |
| 2026-04-30 14:33 | 38.46157 | 31.00687 | 35987 ft | 431 kts | 307° |
| 2026-04-30 14:33 | 38.51971 | 30.91912 | 35978 ft | 431 kts | 307° |
| 2026-04-30 14:34 | 38.55809 | 30.86105 | 35974 ft | 430 kts | 307° |
| 2026-04-30 14:34 | 38.59629 | 30.80312 | 35972 ft | 430 kts | 307° |
| 2026-04-30 14:35 | 38.65366 | 30.71596 | 35971 ft | 429 kts | 307° |
| 2026-04-30 14:36 | 38.69446 | 30.66035 | 35970 ft | 432 kts | 313° |
| 2026-04-30 14:36 | 38.73986 | 30.61146 | 35970 ft | 435 kts | 320° |
| 2026-04-30 14:37 | 38.79055 | 30.56899 | 35970 ft | 439 kts | 327° |
| 2026-04-30 14:37 | 38.84432 | 30.53306 | 35970 ft | 440 kts | 329° |
| 2026-04-30 14:38 | 38.89866 | 30.49806 | 35970 ft | 440 kts | 329° |
| 2026-04-30 14:38 | 38.95345 | 30.46261 | 35970 ft | 441 kts | 329° |
| 2026-04-30 14:39 | 39.00448 | 30.42216 | 35965 ft | 432 kts | 313° |
| 2026-04-30 14:39 | 39.04340 | 30.36565 | 35934 ft | 427 kts | 304° |
| 2026-04-30 14:40 | 39.09798 | 30.27807 | 35952 ft | 427 kts | 305° |
| 2026-04-30 14:40 | 39.13268 | 30.22084 | 35957 ft | 424 kts | 299° |
| 2026-04-30 14:41 | 39.14549 | 30.18778 | 35965 ft | 420 kts | 287° |
| 2026-04-30 14:41 | 39.15220 | 30.15248 | 35969 ft | 418 kts | 275° |
| 2026-04-30 14:41 | 39.15196 | 30.07992 | 35974 ft | 417 kts | 266° |
| 2026-04-30 14:42 | 39.14788 | 30.00544 | 35971 ft | 416 kts | 265° |
| 2026-04-30 14:42 | 39.14351 | 29.93158 | 35971 ft | 416 kts | 265° |
| 2026-04-30 14:43 | 39.14521 | 29.85845 | 35971 ft | 417 kts | 279° |
| 2026-04-30 14:43 | 39.16278 | 29.78708 | 35977 ft | 420 kts | 293° |
| 2026-04-30 14:44 | 39.19471 | 29.72377 | 35985 ft | 426 kts | 308° |
| 2026-04-30 14:44 | 39.23928 | 29.67322 | 35988 ft | 434 kts | 323° |
| 2026-04-30 14:45 | 39.29423 | 29.63976 | 35991 ft | 444 kts | 339° |
| 2026-04-30 14:45 | 39.35572 | 29.62724 | 35996 ft | 454 kts | 353° |
| 2026-04-30 14:46 | 39.41819 | 29.62578 | 35995 ft | 455 kts | 354° |
| 2026-04-30 14:46 | 39.48149 | 29.62483 | 35995 ft | 456 kts | 354° |
| 2026-04-30 14:47 | 39.54381 | 29.62360 | 35995 ft | 456 kts | 354° |
| 2026-04-30 14:47 | 39.60660 | 29.62223 | 35994 ft | 456 kts | 354° |
| 2026-04-30 14:48 | 39.66999 | 29.62076 | 35987 ft | 456 kts | 354° |
| 2026-04-30 14:48 | 39.73370 | 29.61928 | 35980 ft | 456 kts | 354° |
| 2026-04-30 14:49 | 39.79538 | 29.60993 | 35974 ft | 446 kts | 339° |
| 2026-04-30 14:49 | 39.85225 | 29.58044 | 35974 ft | 440 kts | 330° |
| 2026-04-30 14:50 | 39.93536 | 29.53061 | 35970 ft | 440 kts | 330° |
| 2026-04-30 14:51 | 40.01858 | 29.48123 | 35971 ft | 440 kts | 330° |
| 2026-04-30 14:52 | 40.10192 | 29.43189 | 35970 ft | 439 kts | 330° |
| 2026-04-30 14:52 | 40.18276 | 29.38411 | 35971 ft | 439 kts | 330° |
| 2026-04-30 14:53 | 40.26527 | 29.33500 | 35971 ft | 438 kts | 329° |
| 2026-04-30 14:54 | 40.37420 | 29.26957 | 35971 ft | 438 kts | 330° |
| 2026-04-30 14:55 | 40.45678 | 29.22007 | 35970 ft | 437 kts | 329° |
| 2026-04-30 14:56 | 40.56004 | 29.13951 | 35970 ft | 431 kts | 322° |
| 2026-04-30 14:57 | 40.63599 | 29.07738 | 35971 ft | 431 kts | 323° |
| 2026-04-30 14:58 | 40.73755 | 28.99455 | 35979 ft | 431 kts | 322° |
| 2026-04-30 14:58 | 40.81115 | 28.93432 | 36000 ft | 431 kts | 322° |
| 2026-04-30 15:00 | 40.94114 | 28.82430 | 36031 ft | 426 kts | 318° |
| 2026-04-30 15:01 | 41.02657 | 28.72113 | 36044 ft | 419 kts | 309° |
| 2026-04-30 15:01 | 41.08666 | 28.63741 | 36048 ft | 419 kts | 309° |
| 2026-04-30 15:02 | 41.12661 | 28.58190 | 36050 ft | 419 kts | 309° |
| 2026-04-30 15:03 | 41.22661 | 28.44244 | 36050 ft | 418 kts | 309° |
| 2026-04-30 15:04 | 41.32518 | 28.30302 | 36051 ft | 416 kts | 307° |
| 2026-04-30 15:06 | 41.42215 | 28.16283 | 36062 ft | 415 kts | 307° |
| 2026-04-30 15:07 | 41.49988 | 28.05011 | 36101 ft | 414 kts | 307° |
| 2026-04-30 15:07 | 41.53866 | 27.99376 | 36586 ft | 409 kts | 307° |
| 2026-04-30 15:08 | 41.57634 | 27.93886 | 36876 ft | 409 kts | 307° |
| 2026-04-30 15:08 | 41.63391 | 27.85474 | 37214 ft | 410 kts | 307° |
| 2026-04-30 15:09 | 41.67240 | 27.79839 | 37452 ft | 410 kts | 307° |
| 2026-04-30 15:09 | 41.70408 | 27.75194 | 37618 ft | 411 kts | 307° |
| 2026-04-30 15:10 | 41.74890 | 27.68612 | 37847 ft | 412 kts | 307° |
| 2026-04-30 15:11 | 41.82551 | 27.57320 | 38070 ft | 413 kts | 307° |
| 2026-04-30 15:11 | 41.86406 | 27.51623 | 38075 ft | 413 kts | 307° |
| 2026-04-30 15:13 | 41.95982 | 27.37414 | 38077 ft | 412 kts | 307° |
| 2026-04-30 15:14 | 42.08478 | 27.16859 | 38109 ft | 402 kts | 297° |
| 2026-04-30 15:17 | 42.20669 | 26.87697 | 38129 ft | 400 kts | 295° |
| 2026-04-30 15:19 | 42.31392 | 26.61510 | 38132 ft | 402 kts | 295° |
| 2026-04-30 17:39 | 47.46071 | 8.55240 | 1425 ft | 0 kts | 7° |